Terminal Aerodrome Forecast
Issued by NWS Blacksburg, VA

Home | Current Version | Previous Version | Text Only | Print | Product List | Glossary On
Versions: 1 2 3 4 5 6 7 8 9 10 11 12 13 14
000
FTUS41 KRNK 262351
TAFDAN
TAF
KDAN 262351Z 2700/2724 VRB04KT P6SM VCTS BKN040CB OVC090
     FM270200 VRB06KT 5SM -TSRA BR SCT025 OVC045CB
      TEMPO 2702/2704 1SM +TSRA BR OVC015CB
     FM270400 VRB04KT 4SM -SHRA OVC023
     FM271400 25005KT 5SM BR OVC015
     FM271600 28006KT P6SM BKN025 OVC080
     FM272000 27006KT P6SM VCSH BKN040=

USA.gov is the U.S. government's official web portal to all federal, state and local government web resources and services.